Laguna de Pozuelos, Argentina
Current Conditions -  °F | °C
As of 6:00 AM on Thursday 18 Dec 2014 (Local Time) from SLTJ Reporting Station
Broken Clouds Broken Clouds  
Wind Chill: 59°   Ceiling: 7000
Heat Index: 59°   Visibility: 6mi
Dew Point: 57°   Wind: 0mph
Humidity: 94%   Direction: NA
Pressure: 30.09"   Gusts: NA
Location:  22.37°S, 66.02°W
Report Text: SLTJ 180900Z 00000KT 9999 SCT010 SCT023 BKN070 15/14 Q1019
Loading
Personal Weather Stations






























Interactive Weather Map New forecast layout! Learn more

10-Day Weather Forecast

Advertisements
Track Severe Weather on mobile